createdAt,value
2018-10-16T00:01:12.127Z,61.90
2018-10-16T00:03:15.170Z,64.00
2018-10-16T00:05:18.334Z,62.60
2018-10-16T00:07:21.375Z,63.30
2018-10-16T00:09:24.321Z,60.50
2018-10-16T00:11:27.307Z,62.50
2018-10-16T00:13:30.278Z,62.90
2018-10-16T00:15:34.615Z,61.50
2018-10-16T00:17:37.623Z,60.70
2018-10-16T00:19:40.636Z,62.30
2018-10-16T00:21:43.619Z,61.90
2018-10-16T00:23:46.574Z,62.60
2018-10-16T00:25:49.658Z,62.30
2018-10-16T00:27:52.661Z,62.50
2018-10-16T00:29:55.699Z,61.60
2018-10-16T00:31:58.742Z,64.20
2018-10-16T00:34:01.749Z,65.70
2018-10-16T00:36:06.326Z,65.60
2018-10-16T00:38:09.375Z,65.60
2018-10-16T00:40:12.426Z,64.70
2018-10-16T00:42:15.448Z,65.40
2018-10-16T00:44:18.735Z,65.00
2018-10-16T00:46:21.727Z,65.30
2018-10-16T00:48:24.768Z,64.70
2018-10-16T00:50:28.078Z,65.40
2018-10-16T00:52:31.090Z,65.50
2018-10-16T00:54:34.643Z,66.50
2018-10-16T00:56:38.322Z,68.20
2018-10-16T00:58:41.355Z,68.50
2018-10-16T01:00:44.378Z,69.20
2018-10-16T01:02:47.422Z,68.00
2018-10-16T01:04:50.504Z,68.50
2018-10-16T01:06:53.526Z,68.40
2018-10-16T01:08:56.555Z,66.00
2018-10-16T01:10:59.614Z,65.60
2018-10-16T01:13:04.249Z,65.80
2018-10-16T01:15:08.862Z,68.20
2018-10-16T01:17:11.932Z,67.90
2018-10-16T01:19:14.988Z,65.70
2018-10-16T01:21:18.134Z,65.20
2018-10-16T01:23:21.203Z,66.90
2018-10-16T01:25:24.230Z,66.70
2018-10-16T01:27:27.266Z,66.80
2018-10-16T01:29:30.320Z,65.70
2018-10-16T01:31:34.890Z,66.70
2018-10-16T01:33:38.734Z,67.90
2018-10-16T01:35:41.681Z,66.90
2018-10-16T01:37:44.716Z,66.70
2018-10-16T01:39:47.717Z,66.10
2018-10-16T01:41:50.745Z,65.80
2018-10-16T01:43:53.736Z,64.70
2018-10-16T01:45:56.739Z,67.40
2018-10-16T01:47:59.743Z,66.80
2018-10-16T01:50:04.434Z,66.70
2018-10-16T01:52:07.434Z,66.10
2018-10-16T01:54:10.448Z,66.30
2018-10-16T01:56:13.414Z,66.60
2018-10-16T01:58:16.393Z,66.70
2018-10-16T02:00:19.369Z,66.10
2018-10-16T02:02:22.423Z,68.20
2018-10-16T02:04:25.426Z,67.00
2018-10-16T02:06:28.402Z,66.40
2018-10-16T02:08:31.397Z,66.70
2018-10-16T02:10:35.743Z,67.50
2018-10-16T02:12:38.730Z,66.20
2018-10-16T02:14:41.747Z,67.20
2018-10-16T02:16:44.797Z,68.80
2018-10-16T02:18:47.775Z,69.00
2018-10-16T02:20:50.753Z,68.90
2018-10-16T02:22:53.731Z,69.90
2018-10-16T02:24:56.706Z,70.80
2018-10-16T02:26:59.746Z,69.70
2018-10-16T02:29:04.483Z,71.90
2018-10-16T02:31:07.503Z,72.60
2018-10-16T02:33:10.574Z,71.60
2018-10-16T02:35:13.658Z,70.20
2018-10-16T02:37:16.717Z,69.90
2018-10-16T02:39:19.778Z,71.60
2018-10-16T02:41:22.799Z,71.60
2018-10-16T02:43:25.802Z,70.10
2018-10-16T02:45:28.832Z,71.80
2018-10-16T02:47:31.819Z,72.70
2018-10-16T02:49:36.160Z,73.40
2018-10-16T02:51:39.188Z,73.70
2018-10-16T02:53:42.215Z,72.70
2018-10-16T02:55:45.285Z,74.00
2018-10-16T02:57:48.328Z,73.80
2018-10-16T02:59:51.323Z,71.90
2018-10-16T03:01:54.710Z,70.10
2018-10-16T03:03:57.738Z,71.50
2018-10-16T03:06:00.790Z,71.30
2018-10-16T03:08:05.900Z,74.20
2018-10-16T03:10:08.996Z,72.30
2018-10-16T03:12:12.023Z,73.00
2018-10-16T03:14:15.070Z,70.30
2018-10-16T03:16:18.955Z,70.50
2018-10-16T03:18:21.962Z,70.30
2018-10-16T03:20:25.111Z,70.10
2018-10-16T03:22:28.121Z,70.40
2018-10-16T03:24:31.182Z,69.90
2018-10-16T03:26:36.078Z,70.40
2018-10-16T03:28:39.125Z,70.90
2018-10-16T03:30:42.221Z,71.90
2018-10-16T03:32:45.246Z,70.40
2018-10-16T03:34:48.662Z,70.50
2018-10-16T03:36:51.751Z,69.00
2018-10-16T03:38:54.763Z,70.30
2018-10-16T03:40:57.790Z,69.80
2018-10-16T03:43:00.911Z,71.10
2018-10-16T03:45:05.813Z,70.80
2018-10-16T03:47:08.851Z,72.80
2018-10-16T03:49:11.902Z,72.80
2018-10-16T03:51:14.911Z,72.20
2018-10-16T03:53:17.962Z,75.40
2018-10-16T03:55:20.959Z,74.60
2018-10-16T03:57:24.013Z,74.80
2018-10-16T03:59:27.039Z,74.80
2018-10-16T04:01:30.061Z,75.00
2018-10-16T04:03:34.374Z,74.90
2018-10-16T04:05:37.398Z,74.60
2018-10-16T04:07:40.443Z,73.50
2018-10-16T04:09:43.853Z,74.20
2018-10-16T04:11:46.863Z,72.80
2018-10-16T04:13:50.194Z,72.00
2018-10-16T04:15:53.212Z,73.30
2018-10-16T04:17:56.159Z,73.40
2018-10-16T04:19:59.201Z,71.90
2018-10-16T04:22:02.240Z,73.00
2018-10-16T04:24:06.936Z,72.50
2018-10-16T04:26:10.603Z,72.40
2018-10-16T04:28:13.570Z,73.00
2018-10-16T04:30:16.571Z,72.20
2018-10-16T04:32:19.526Z,72.80
2018-10-16T04:34:22.485Z,72.80
2018-10-16T04:36:25.523Z,73.60
2018-10-16T04:38:28.501Z,73.80
2018-10-16T04:40:31.470Z,72.40
2018-10-16T04:42:35.549Z,71.50
2018-10-16T04:44:38.478Z,75.50
2018-10-16T04:46:41.435Z,75.30
2018-10-16T04:48:44.436Z,75.30
2018-10-16T04:50:47.386Z,76.30
2018-10-16T04:52:50.409Z,77.00
2018-10-16T04:54:53.345Z,75.50
2018-10-16T04:56:56.359Z,73.20
2018-10-16T04:58:59.411Z,73.10
2018-10-16T05:01:02.407Z,76.70
2018-10-16T05:03:05.972Z,76.50
2018-10-16T05:05:19.576Z,75.90
2018-10-16T05:07:22.546Z,76.60
2018-10-16T05:09:25.632Z,75.60
2018-10-16T05:11:28.653Z,76.50
2018-10-16T05:13:31.647Z,76.40
2018-10-16T05:15:35.922Z,76.80
2018-10-16T05:17:38.935Z,76.20
2018-10-16T05:19:41.918Z,76.60
2018-10-16T05:21:45.291Z,76.50
2018-10-16T05:23:48.414Z,76.70
2018-10-16T05:25:51.442Z,76.60
2018-10-16T05:27:54.883Z,76.50
2018-10-16T05:29:57.886Z,76.40
2018-10-16T05:32:00.875Z,76.20
2018-10-16T05:34:06.411Z,76.10
2018-10-16T05:36:09.455Z,76.30
2018-10-16T05:38:18.828Z,76.80
2018-10-16T05:40:37.365Z,74.90
2018-10-16T05:42:40.514Z,73.60
2018-10-16T05:44:43.514Z,74.40
2018-10-16T05:46:46.588Z,74.40
2018-10-16T05:48:49.625Z,74.00
2018-10-16T05:50:52.611Z,72.30
2018-10-16T05:52:55.653Z,73.00
2018-10-16T05:54:58.798Z,72.20
2018-10-16T05:57:01.851Z,74.70
2018-10-16T05:59:06.546Z,75.40
2018-10-16T06:01:09.543Z,75.00
2018-10-16T06:03:12.596Z,74.30
2018-10-16T06:05:15.605Z,76.00
2018-10-16T06:07:18.939Z,74.70
2018-10-16T06:09:21.922Z,75.60
2018-10-16T06:11:24.915Z,76.10
2018-10-16T06:13:27.948Z,75.70
2018-10-16T06:15:30.984Z,75.30
2018-10-16T06:17:35.336Z,75.80
2018-10-16T06:19:38.331Z,74.60
2018-10-16T06:21:41.355Z,73.00
2018-10-16T06:23:44.379Z,73.10
2018-10-16T06:25:47.359Z,73.20
2018-10-16T06:27:50.461Z,74.40
2018-10-16T06:29:53.529Z,74.30
2018-10-16T06:31:56.514Z,74.20
2018-10-16T06:33:59.538Z,74.60
2018-10-16T06:36:03.900Z,74.80
2018-10-16T06:38:06.874Z,75.10
2018-10-16T06:40:10.358Z,75.80
2018-10-16T06:42:13.632Z,75.40
2018-10-16T06:44:16.602Z,75.40
2018-10-16T06:46:19.616Z,76.20
2018-10-16T06:48:22.751Z,77.20
2018-10-16T06:50:25.609Z,76.60
2018-10-16T06:52:28.574Z,76.20
2018-10-16T06:54:31.607Z,76.30
2018-10-16T06:56:35.841Z,76.50
2018-10-16T06:58:38.819Z,77.00
2018-10-16T07:00:41.787Z,76.90
2018-10-16T07:02:44.754Z,76.60
2018-10-16T07:04:47.779Z,76.40
2018-10-16T07:06:50.873Z,76.50
2018-10-16T07:08:53.842Z,76.70
2018-10-16T07:10:56.894Z,76.50
2018-10-16T07:13:00.159Z,76.70
2018-10-16T07:15:04.289Z,76.60
2018-10-16T07:17:07.257Z,76.20
2018-10-16T07:19:10.398Z,75.90
2018-10-16T07:21:13.503Z,75.40
2018-10-16T07:23:16.573Z,75.00
2018-10-16T07:25:19.524Z,74.70
2018-10-16T07:27:22.607Z,75.10
2018-10-16T07:29:25.636Z,73.80
2018-10-16T07:31:28.728Z,74.40
2018-10-16T07:33:31.786Z,73.20
2018-10-16T07:35:36.123Z,72.30
2018-10-16T07:37:39.868Z,72.30
2018-10-16T07:39:42.884Z,72.80
2018-10-16T07:41:46.196Z,72.20
2018-10-16T07:43:49.217Z,72.50
2018-10-16T07:45:52.240Z,71.40
2018-10-16T07:47:55.661Z,70.40
2018-10-16T07:49:58.737Z,70.70
2018-10-16T07:52:01.829Z,70.20
2018-10-16T07:54:05.330Z,69.80
2018-10-16T07:56:08.739Z,69.70
2018-10-16T07:58:11.749Z,69.30
2018-10-16T08:00:14.760Z,69.20
2018-10-16T08:02:17.799Z,69.00
2018-10-16T08:04:20.849Z,67.80
2018-10-16T08:06:23.882Z,67.80
2018-10-16T08:08:26.903Z,67.80
2018-10-16T08:10:29.921Z,68.20
2018-10-16T08:12:34.086Z,69.20
2018-10-16T08:14:37.902Z,68.70
2018-10-16T08:16:40.917Z,68.50
2018-10-16T08:18:43.882Z,68.00
2018-10-16T08:20:46.863Z,66.90
2018-10-16T08:22:49.900Z,66.90
2018-10-16T08:24:52.962Z,66.40
2018-10-16T08:26:56.345Z,65.50
2018-10-16T08:28:59.235Z,64.40
2018-10-16T08:31:02.406Z,63.70
2018-10-16T08:33:06.880Z,63.90
2018-10-16T08:35:09.863Z,63.10
2018-10-16T08:37:21.940Z,63.30
2018-10-16T08:39:31.863Z,62.10
2018-10-16T08:44:02.095Z,60.80
2018-10-16T08:46:23.783Z,60.80
2018-10-16T08:48:44.698Z,60.10
2018-10-16T08:51:06.102Z,59.80
2018-10-16T08:53:09.135Z,58.50
2018-10-16T08:55:12.151Z,56.40
2018-10-16T08:57:15.186Z,56.90
2018-10-16T08:59:18.286Z,56.30
2018-10-16T09:01:21.325Z,55.90
2018-10-16T09:03:24.350Z,56.00
2018-10-16T09:05:27.675Z,54.30
2018-10-16T09:07:30.666Z,53.80
2018-10-16T09:09:34.875Z,54.70
2018-10-16T09:11:37.898Z,56.60
2018-10-16T09:13:40.955Z,54.10
2018-10-16T09:15:43.964Z,53.20
2018-10-16T09:17:46.952Z,52.40
2018-10-16T09:19:49.918Z,52.50
2018-10-16T09:21:52.903Z,52.20
2018-10-16T09:23:55.878Z,53.00
2018-10-16T09:25:58.991Z,53.50
2018-10-16T09:28:02.007Z,52.80
2018-10-16T09:30:07.512Z,53.30
2018-10-16T09:32:10.497Z,51.90
2018-10-16T09:34:13.493Z,50.70
2018-10-16T09:36:16.511Z,50.40
2018-10-16T09:38:19.588Z,51.40
2018-10-16T09:40:22.653Z,50.90
2018-10-16T09:42:25.789Z,51.10
2018-10-16T09:44:28.869Z,51.40
2018-10-16T09:46:31.897Z,51.30
2018-10-16T09:48:36.172Z,50.70
2018-10-16T09:50:39.295Z,49.00
2018-10-16T09:52:42.349Z,49.10
2018-10-16T09:54:45.416Z,48.70
2018-10-16T09:56:48.487Z,50.00
2018-10-16T09:58:51.571Z,49.90
2018-10-16T10:01:00.425Z,50.10
2018-10-16T10:03:04.567Z,49.70
2018-10-16T10:05:07.706Z,48.30
2018-10-16T10:07:10.833Z,48.60
2018-10-16T10:09:13.909Z,48.70
2018-10-16T10:11:16.956Z,47.90
2018-10-16T10:13:20.009Z,48.30
2018-10-16T10:15:23.013Z,48.90
2018-10-16T10:17:26.033Z,48.30
2018-10-16T10:19:29.069Z,49.00
2018-10-16T10:21:32.080Z,49.10
2018-10-16T10:23:36.365Z,49.50
2018-10-16T10:25:39.348Z,48.50
2018-10-16T10:27:42.353Z,45.00
2018-10-16T10:29:45.422Z,46.70
2018-10-16T10:31:48.431Z,45.60
2018-10-16T10:33:51.501Z,46.30
2018-10-16T10:35:54.571Z,46.00
2018-10-16T10:37:57.619Z,45.20
2018-10-16T10:40:00.636Z,44.70
2018-10-16T10:42:04.269Z,45.20
2018-10-16T10:44:07.919Z,43.50
2018-10-16T10:46:10.963Z,45.10
2018-10-16T10:48:14.005Z,43.70
2018-10-16T10:50:17.067Z,45.10
2018-10-16T10:52:20.106Z,44.10
2018-10-16T10:54:23.153Z,44.00
2018-10-16T10:56:26.180Z,44.60
2018-10-16T10:58:29.165Z,45.00
2018-10-16T11:00:32.223Z,43.80
2018-10-16T11:02:36.810Z,43.90
2018-10-16T11:04:39.868Z,43.20
2018-10-16T11:06:42.889Z,43.80
2018-10-16T11:08:45.945Z,43.70
2018-10-16T11:10:48.961Z,41.80
2018-10-16T11:12:52.062Z,43.20
2018-10-16T11:14:55.420Z,43.70
2018-10-16T11:16:58.453Z,43.40
2018-10-16T11:19:01.556Z,41.70
2018-10-16T11:21:06.355Z,41.50
2018-10-16T11:23:09.396Z,42.60
2018-10-16T11:25:12.527Z,43.20
2018-10-16T11:27:15.613Z,43.70
2018-10-16T11:29:18.640Z,42.20
2018-10-16T11:31:21.710Z,41.20
2018-10-16T11:33:24.741Z,42.20
2018-10-16T11:35:27.805Z,40.10
2018-10-16T11:37:30.902Z,41.30
2018-10-16T11:39:35.023Z,41.00
2018-10-16T11:41:38.174Z,41.70
2018-10-16T11:43:41.295Z,41.50
2018-10-16T11:45:44.429Z,39.90
2018-10-16T11:47:47.511Z,40.70
2018-10-16T11:49:50.814Z,42.00
2018-10-16T11:51:53.853Z,42.20
2018-10-16T11:53:56.885Z,42.10
2018-10-16T11:56:00.106Z,40.70
2018-10-16T11:58:04.789Z,41.00
2018-10-16T12:00:13.770Z,42.00
2018-10-16T12:02:16.933Z,40.00
2018-10-16T12:04:19.929Z,40.90
2018-10-16T12:06:23.019Z,39.00
2018-10-16T12:08:26.148Z,40.70
2018-10-16T12:10:29.248Z,40.10
2018-10-16T12:12:32.291Z,40.70
2018-10-16T12:14:35.693Z,40.20
2018-10-16T12:16:45.257Z,40.90
2018-10-16T12:18:52.897Z,40.90
2018-10-16T12:21:04.835Z,40.90
2018-10-16T12:23:07.920Z,41.00
2018-10-16T12:25:11.063Z,41.60
2018-10-16T12:27:14.168Z,41.60
2018-10-16T12:29:17.225Z,41.40
2018-10-16T12:31:20.276Z,41.60
2018-10-16T12:33:23.715Z,41.50
2018-10-16T12:35:26.741Z,41.80
2018-10-16T12:37:29.787Z,41.60
2018-10-16T12:39:34.077Z,42.20
2018-10-16T12:41:37.121Z,41.00
2018-10-16T12:43:40.413Z,40.10
2018-10-16T12:45:43.621Z,40.50
2018-10-16T12:47:46.654Z,40.50
2018-10-16T12:49:49.679Z,39.50
2018-10-16T12:51:52.749Z,38.20
2018-10-16T12:53:55.817Z,37.20
2018-10-16T12:55:58.969Z,36.90
2018-10-16T12:58:02.045Z,38.10
2018-10-16T13:00:06.567Z,38.60
2018-10-16T13:02:09.693Z,39.90
2018-10-16T13:04:12.678Z,39.70
2018-10-16T13:06:15.709Z,40.10
2018-10-16T13:08:18.759Z,41.30
2018-10-16T13:10:21.841Z,41.80
2018-10-16T13:12:24.950Z,40.60
2018-10-16T13:14:28.278Z,39.10
2018-10-16T13:16:31.772Z,39.50
2018-10-16T13:18:36.110Z,40.60
2018-10-16T13:20:39.157Z,40.10
2018-10-16T13:22:43.689Z,40.50
2018-10-16T13:24:46.713Z,41.40
2018-10-16T13:26:49.824Z,41.20
2018-10-16T13:28:53.257Z,40.60
2018-10-16T13:30:56.286Z,41.10
2018-10-16T13:32:59.381Z,40.40
2018-10-16T13:35:02.515Z,40.20
2018-10-16T13:37:06.073Z,40.30
2018-10-16T13:39:09.101Z,38.50
2018-10-16T13:41:12.165Z,39.00
2018-10-16T13:43:15.250Z,36.80
2018-10-16T13:45:18.329Z,39.60
2018-10-16T13:47:21.372Z,39.40
2018-10-16T13:49:24.524Z,38.40
2018-10-16T13:51:27.613Z,37.60
2018-10-16T13:53:30.652Z,37.40
2018-10-16T13:55:35.353Z,36.40
2018-10-16T13:57:38.497Z,35.80
2018-10-16T13:59:41.528Z,37.40
2018-10-16T14:01:44.557Z,37.30
2018-10-16T14:03:47.621Z,38.20
2018-10-16T14:05:50.840Z,37.60
2018-10-16T14:07:53.904Z,38.20
2018-10-16T14:09:56.960Z,37.20
2018-10-16T14:12:00.073Z,37.10
2018-10-16T14:14:05.234Z,38.40
2018-10-16T14:16:08.312Z,37.90
2018-10-16T14:18:11.376Z,37.70
2018-10-16T14:20:14.481Z,38.00
2018-10-16T14:22:17.541Z,37.30
2018-10-16T14:24:20.594Z,35.90
2018-10-16T14:26:23.655Z,37.10
2018-10-16T14:28:26.750Z,36.90
2018-10-16T14:30:29.834Z,38.00
2018-10-16T14:32:33.980Z,36.90
2018-10-16T14:34:37.120Z,37.50
2018-10-16T14:36:40.115Z,36.30
2018-10-16T14:38:43.244Z,36.80
2018-10-16T14:40:46.320Z,38.20
2018-10-16T14:42:49.347Z,37.70
2018-10-16T14:44:52.408Z,38.10
2018-10-16T14:46:55.533Z,38.90
2018-10-16T14:48:58.578Z,39.50
2018-10-16T14:51:01.605Z,38.70
2018-10-16T14:53:06.645Z,38.50
2018-10-16T14:55:09.738Z,38.30
2018-10-16T14:57:12.813Z,38.50
2018-10-16T14:59:15.830Z,39.50
2018-10-16T15:01:18.897Z,39.50
2018-10-16T15:03:21.971Z,39.90
2018-10-16T15:05:25.004Z,39.90
2018-10-16T15:07:28.058Z,40.10
2018-10-16T15:09:31.134Z,40.20
2018-10-16T15:11:35.521Z,40.50
2018-10-16T15:13:38.613Z,41.00
2018-10-16T15:15:41.646Z,41.00
2018-10-16T15:17:44.712Z,41.50
2018-10-16T15:19:48.074Z,42.10
2018-10-16T15:21:51.128Z,42.30
2018-10-16T15:23:54.194Z,42.20
2018-10-16T15:25:57.344Z,43.30
2018-10-16T15:28:00.376Z,42.70
2018-10-16T15:30:05.100Z,42.80
2018-10-16T15:32:08.291Z,43.30
2018-10-16T15:34:11.347Z,43.30
2018-10-16T15:36:14.364Z,43.80
2018-10-16T15:38:17.459Z,43.70
2018-10-16T15:40:20.503Z,43.80
2018-10-16T15:42:23.633Z,44.30
2018-10-16T15:44:26.686Z,44.60
2018-10-16T15:46:29.733Z,44.70
2018-10-16T15:48:34.016Z,44.80
2018-10-16T15:50:37.047Z,44.80
2018-10-16T15:52:40.205Z,45.00
2018-10-16T15:54:43.249Z,44.90
2018-10-16T15:56:46.272Z,45.10
2018-10-16T15:58:49.705Z,45.20
2018-10-16T16:00:52.671Z,45.60
2018-10-16T16:02:55.748Z,45.50
2018-10-16T16:04:58.813Z,45.30
2018-10-16T16:07:01.857Z,45.90
2018-10-16T16:09:06.524Z,45.80
2018-10-16T16:11:09.575Z,46.10
2018-10-16T16:13:12.588Z,46.20
2018-10-16T16:15:15.561Z,46.40
2018-10-16T16:17:18.602Z,46.20
2018-10-16T16:19:21.611Z,46.40
2018-10-16T16:21:24.617Z,46.80
2018-10-16T16:23:27.668Z,46.90
2018-10-16T16:25:30.664Z,47.70
2018-10-16T16:27:35.156Z,47.40
2018-10-16T16:29:38.231Z,47.50
2018-10-16T16:31:41.275Z,48.10
2018-10-16T16:33:44.268Z,48.20
2018-10-16T16:35:47.248Z,49.10
2018-10-16T16:37:50.727Z,48.40
2018-10-16T16:39:53.681Z,48.80
2018-10-16T16:41:56.691Z,49.10
2018-10-16T16:43:59.790Z,49.10
2018-10-16T16:46:04.642Z,49.20
2018-10-16T16:48:07.717Z,50.00
2018-10-16T16:50:11.621Z,49.30
2018-10-16T16:52:14.555Z,49.00
2018-10-16T16:54:17.616Z,49.50
2018-10-16T16:56:20.605Z,49.90
2018-10-16T16:58:23.652Z,49.70
2018-10-16T17:00:26.629Z,49.80
2018-10-16T17:02:29.624Z,50.60
2018-10-16T17:04:34.117Z,51.00
2018-10-16T17:06:37.082Z,51.20
2018-10-16T17:08:40.120Z,51.60
2018-10-16T17:10:43.131Z,51.80
2018-10-16T17:12:46.152Z,51.30
2018-10-16T17:14:49.221Z,52.20
2018-10-16T17:16:52.288Z,52.90
2018-10-16T17:18:55.401Z,51.80
2018-10-16T17:20:58.419Z,51.90
2018-10-16T17:23:01.442Z,51.80
2018-10-16T17:25:05.276Z,52.70
2018-10-16T17:27:08.376Z,53.50
2018-10-16T17:29:11.819Z,53.20
2018-10-16T17:31:14.793Z,52.90
2018-10-16T17:33:17.837Z,52.20
2018-10-16T17:35:20.837Z,52.70
2018-10-16T17:37:23.881Z,53.10
2018-10-16T17:39:26.923Z,53.50
2018-10-16T17:41:30.085Z,53.20
2018-10-16T17:43:34.530Z,53.00
2018-10-16T17:45:37.570Z,52.90
2018-10-16T17:47:40.880Z,54.10
2018-10-16T17:49:43.841Z,53.70
2018-10-16T17:51:46.841Z,54.20
2018-10-16T17:53:49.900Z,53.60
2018-10-16T17:55:52.940Z,53.80
2018-10-16T17:57:56.008Z,53.80
2018-10-16T17:59:58.995Z,53.60
2018-10-16T18:02:02.037Z,54.30
2018-10-16T18:04:07.069Z,54.70
2018-10-16T18:06:10.026Z,54.40
2018-10-16T18:08:13.341Z,54.10
2018-10-16T18:10:16.344Z,54.20
2018-10-16T18:12:19.328Z,54.70
2018-10-16T18:14:22.333Z,54.20
2018-10-16T18:16:25.340Z,54.20
2018-10-16T18:18:28.315Z,54.00
2018-10-16T18:20:31.371Z,54.30
2018-10-16T18:22:35.613Z,54.90
2018-10-16T18:24:38.629Z,55.60
2018-10-16T18:26:41.660Z,55.90
2018-10-16T18:28:44.646Z,56.30
2018-10-16T18:30:47.645Z,56.20
2018-10-16T18:32:50.706Z,55.60
2018-10-16T18:34:53.694Z,55.90
2018-10-16T18:36:56.691Z,55.40
2018-10-16T18:38:59.775Z,56.40
2018-10-16T18:41:04.566Z,56.10
2018-10-16T18:43:07.549Z,55.70
2018-10-16T18:45:12.190Z,56.90
2018-10-16T18:47:15.211Z,56.80
2018-10-16T18:49:18.273Z,56.00
2018-10-16T18:51:21.632Z,56.10
2018-10-16T18:53:24.785Z,56.20
2018-10-16T18:55:27.821Z,56.20
2018-10-16T18:57:30.911Z,55.60
2018-10-16T18:59:35.062Z,56.20
2018-10-16T19:01:38.110Z,56.20
2018-10-16T19:03:41.160Z,55.80
2018-10-16T19:05:44.322Z,56.40
2018-10-16T19:07:47.431Z,56.40
2018-10-16T19:09:50.461Z,56.20
2018-10-16T19:11:53.582Z,56.80
2018-10-16T19:13:56.782Z,56.90
2018-10-16T19:16:00.043Z,57.70
2018-10-16T19:18:04.496Z,58.70
2018-10-16T19:20:09.519Z,57.70
2018-10-16T19:22:12.551Z,58.50
2018-10-16T19:24:15.613Z,58.10
2018-10-16T19:26:18.702Z,58.90
2018-10-16T19:28:21.804Z,59.10
2018-10-16T19:30:24.857Z,59.80
2018-10-16T19:32:27.881Z,60.00
2018-10-16T19:34:31.277Z,58.90
2018-10-16T19:36:35.666Z,58.90
2018-10-16T19:38:38.668Z,59.50
2018-10-16T19:40:41.972Z,58.80
2018-10-16T19:42:45.008Z,60.30
2018-10-16T19:44:48.026Z,59.30
2018-10-16T19:46:51.380Z,59.50
2018-10-16T19:48:54.500Z,59.50
2018-10-16T19:50:57.602Z,59.10
2018-10-16T19:53:00.953Z,59.50
2018-10-16T19:55:06.265Z,59.50
2018-10-16T19:57:09.366Z,61.30
2018-10-16T19:59:12.452Z,62.00
2018-10-16T20:01:15.488Z,62.80
2018-10-16T20:03:18.614Z,61.10
2018-10-16T20:05:21.681Z,61.30
2018-10-16T20:07:24.740Z,61.60
2018-10-16T20:09:27.789Z,61.30
2018-10-16T20:11:30.984Z,62.40
2018-10-16T20:13:35.108Z,61.80
2018-10-16T20:15:38.192Z,62.80
2018-10-16T20:17:41.166Z,61.80
2018-10-16T20:19:44.230Z,63.00
2018-10-16T20:21:47.388Z,62.20
2018-10-16T20:23:50.451Z,62.60
2018-10-16T20:25:53.424Z,64.40
2018-10-16T20:27:56.460Z,63.80
2018-10-16T20:29:59.489Z,63.00
2018-10-16T20:32:03.991Z,63.40
2018-10-16T20:34:06.969Z,63.60
2018-10-16T20:36:10.016Z,64.60
2018-10-16T20:38:13.042Z,64.40
2018-10-16T20:40:16.041Z,64.40
2018-10-16T20:42:19.126Z,64.90
2018-10-16T20:44:22.126Z,64.50
2018-10-16T20:46:25.112Z,64.40
2018-10-16T20:48:28.170Z,65.40
2018-10-16T20:50:31.153Z,64.50
2018-10-16T20:52:35.369Z,63.80
2018-10-16T20:54:38.406Z,65.50
2018-10-16T20:56:41.461Z,64.20
2018-10-16T20:58:44.421Z,65.20
2018-10-16T21:00:47.812Z,65.40
2018-10-16T21:02:50.996Z,66.20
2018-10-16T21:04:54.196Z,65.90
2018-10-16T21:06:57.161Z,66.50
2018-10-16T21:09:00.376Z,67.90
2018-10-16T21:11:04.713Z,66.90
2018-10-16T21:13:07.773Z,67.10
2018-10-16T21:15:10.844Z,67.20
2018-10-16T21:17:13.832Z,67.80
2018-10-16T21:19:16.825Z,68.30
2018-10-16T21:21:20.103Z,69.50
2018-10-16T21:23:23.096Z,71.00
2018-10-16T21:25:26.076Z,69.50
2018-10-16T21:27:29.123Z,67.90
2018-10-16T21:29:32.376Z,67.90
2018-10-16T21:31:36.399Z,67.90
2018-10-16T21:33:39.529Z,69.60
2018-10-16T21:35:42.494Z,72.80
2018-10-16T21:37:45.498Z,72.60
2018-10-16T21:39:48.499Z,70.10
2018-10-16T21:41:51.537Z,70.00
2018-10-16T21:43:54.972Z,70.10
2018-10-16T21:45:58.040Z,70.00
2018-10-16T21:48:01.014Z,71.30
2018-10-16T21:50:05.930Z,69.90
2018-10-16T21:52:08.948Z,70.30
2018-10-16T21:54:11.960Z,69.40
2018-10-16T21:56:14.983Z,70.90
2018-10-16T21:58:17.987Z,70.60
2018-10-16T22:00:26.710Z,70.60
2018-10-16T22:02:35.371Z,69.00
2018-10-16T22:04:39.780Z,69.90
2018-10-16T22:06:43.072Z,69.20
2018-10-16T22:08:46.068Z,68.60
2018-10-16T22:10:49.123Z,69.30
2018-10-16T22:12:52.349Z,68.50
2018-10-16T22:14:55.376Z,68.80
2018-10-16T22:16:58.466Z,70.70
2018-10-16T22:19:01.513Z,73.10
2018-10-16T22:21:06.100Z,74.20
2018-10-16T22:23:09.458Z,73.50
2018-10-16T22:25:12.906Z,72.80
2018-10-16T22:27:15.872Z,73.10
2018-10-16T22:29:18.921Z,72.30
2018-10-16T22:31:21.840Z,70.90
2018-10-16T22:33:24.824Z,72.20
2018-10-16T22:35:27.818Z,72.70
2018-10-16T22:37:30.842Z,73.40
2018-10-16T22:39:35.092Z,73.40
2018-10-16T22:41:38.410Z,74.50
2018-10-16T22:43:41.432Z,74.70
2018-10-16T22:45:44.397Z,73.60
2018-10-16T22:47:47.380Z,72.90
2018-10-16T22:49:50.746Z,73.30
2018-10-16T22:51:53.739Z,75.30
2018-10-16T22:53:56.688Z,73.60
2018-10-16T22:55:59.688Z,72.50
2018-10-16T22:58:05.051Z,72.60
2018-10-16T23:00:14.167Z,72.60
2018-10-16T23:02:17.191Z,71.80
2018-10-16T23:04:20.183Z,73.40
2018-10-16T23:06:23.137Z,74.20
2018-10-16T23:08:26.459Z,73.30
2018-10-16T23:10:29.443Z,73.30
2018-10-16T23:12:32.416Z,72.50
2018-10-16T23:14:36.827Z,72.70
2018-10-16T23:16:39.838Z,72.60
2018-10-16T23:18:43.071Z,73.10
2018-10-16T23:20:46.103Z,73.50
2018-10-16T23:22:49.108Z,73.10
2018-10-16T23:24:52.254Z,73.20
2018-10-16T23:26:55.295Z,73.20
2018-10-16T23:28:58.378Z,73.10
2018-10-16T23:31:01.670Z,72.70
2018-10-16T23:33:06.305Z,73.30
2018-10-16T23:35:09.396Z,73.20
2018-10-16T23:37:12.459Z,74.70
2018-10-16T23:39:15.639Z,73.70
2018-10-16T23:41:18.687Z,74.20
2018-10-16T23:43:21.937Z,76.60
2018-10-16T23:45:24.907Z,75.70
2018-10-16T23:47:27.916Z,74.60
2018-10-16T23:49:30.951Z,74.50
2018-10-16T23:51:35.410Z,75.80
2018-10-16T23:53:38.433Z,74.90
2018-10-16T23:55:41.800Z,74.50
2018-10-16T23:57:44.752Z,74.80
2018-10-16T23:59:47.753Z,74.30
